Bar Harbor, Maine
Current Conditions -  °F | °C
As of 5:55 PM on Friday 28 Nov 2014 (Local Time) from KBHB Reporting Station
Overcast Overcast  
Wind Chill: 23°   Ceiling: 7500
Heat Index: 23°   Visibility: 10mi
Dew Point: 19°   Wind: 0mph
Humidity: 86%   Direction: NA
Pressure: 30.06"   Gusts: NA
Location:  44.39°N, 68.2°W
Report Text: KBHB 282255Z AUTO 00000KT 10SM OVC075 M05/M07 A3006 RMK AO1
Loading
Personal Weather Stations






























Interactive Weather Map New forecast layout! Learn more

10-Day Weather Forecast

Advertisements
Track Severe Weather on mobile